sensor_id;sensor_type;location;lat;lon;timestamp;temperature;humidity
16174;DHT22;14031;50.158;8.626;2023-01-29T00:01:30;3.20;99.90
16174;DHT22;14031;50.158;8.626;2023-01-29T00:03:57;3.20;99.90
16174;DHT22;14031;50.158;8.626;2023-01-29T00:06:25;3.30;99.90
16174;DHT22;14031;50.158;8.626;2023-01-29T00:08:51;3.20;99.90
16174;DHT22;14031;50.158;8.626;2023-01-29T00:11:18;3.20;99.90
16174;DHT22;14031;50.158;8.626;2023-01-29T00:13:46;3.20;99.90
16174;DHT22;14031;50.158;8.626;2023-01-29T00:16:12;3.10;99.90
16174;DHT22;14031;50.158;8.626;2023-01-29T00:18:40;3.10;99.90
16174;DHT22;14031;50.158;8.626;2023-01-29T00:21:08;3.10;99.90
16174;DHT22;14031;50.158;8.626;2023-01-29T00:23:37;3.10;99.90
16174;DHT22;14031;50.158;8.626;2023-01-29T00:26:04;3.10;99.90
16174;DHT22;14031;50.158;8.626;2023-01-29T00:28:31;3.10;99.90
16174;DHT22;14031;50.158;8.626;2023-01-29T00:31:05;3.10;99.90
16174;DHT22;14031;50.158;8.626;2023-01-29T00:33:32;3.20;99.90
16174;DHT22;14031;50.158;8.626;2023-01-29T00:36:01;3.20;99.90
16174;DHT22;14031;50.158;8.626;2023-01-29T00:38:28;3.00;99.90
16174;DHT22;14031;50.158;8.626;2023-01-29T00:40:56;3.00;99.90
16174;DHT22;14031;50.158;8.626;2023-01-29T00:43:40;2.80;99.90
16174;DHT22;14031;50.158;8.626;2023-01-29T00:46:24;2.70;99.90
16174;DHT22;14031;50.158;8.626;2023-01-29T00:48:51;2.90;99.90
16174;DHT22;14031;50.158;8.626;2023-01-29T00:51:18;2.90;99.90
16174;DHT22;14031;50.158;8.626;2023-01-29T00:53:45;3.00;99.90
16174;DHT22;14031;50.158;8.626;2023-01-29T00:56:13;3.00;99.90
16174;DHT22;14031;50.158;8.626;2023-01-29T00:58:39;3.00;99.90
16174;DHT22;14031;50.158;8.626;2023-01-29T01:01:06;3.10;99.90
16174;DHT22;14031;50.158;8.626;2023-01-29T01:03:34;3.10;99.90
16174;DHT22;14031;50.158;8.626;2023-01-29T01:06:09;3.10;99.90
16174;DHT22;14031;50.158;8.626;2023-01-29T01:08:36;3.10;99.90
16174;DHT22;14031;50.158;8.626;2023-01-29T01:11:22;3.00;99.90
16174;DHT22;14031;50.158;8.626;2023-01-29T01:13:48;3.10;99.90
16174;DHT22;14031;50.158;8.626;2023-01-29T01:16:16;3.10;99.90
16174;DHT22;14031;50.158;8.626;2023-01-29T01:18:45;3.00;99.90
16174;DHT22;14031;50.158;8.626;2023-01-29T01:21:11;3.00;99.90
16174;DHT22;14031;50.158;8.626;2023-01-29T01:23:38;3.00;99.90
16174;DHT22;14031;50.158;8.626;2023-01-29T01:26:08;3.10;99.90
16174;DHT22;14031;50.158;8.626;2023-01-29T01:28:37;3.10;99.90
16174;DHT22;14031;50.158;8.626;2023-01-29T01:31:09;3.10;99.90
16174;DHT22;14031;50.158;8.626;2023-01-29T01:33:35;3.10;99.90
16174;DHT22;14031;50.158;8.626;2023-01-29T01:36:03;3.10;99.90
16174;DHT22;14031;50.158;8.626;2023-01-29T01:38:30;3.10;99.90
16174;DHT22;14031;50.158;8.626;2023-01-29T01:40:56;3.10;99.90
16174;DHT22;14031;50.158;8.626;2023-01-29T01:43:23;3.00;99.90
16174;DHT22;14031;50.158;8.626;2023-01-29T01:45:51;3.10;99.90
16174;DHT22;14031;50.158;8.626;2023-01-29T01:48:20;3.10;99.90
16174;DHT22;14031;50.158;8.626;2023-01-29T01:50:50;3.10;99.90
16174;DHT22;14031;50.158;8.626;2023-01-29T01:53:23;3.00;99.90
16174;DHT22;14031;50.158;8.626;2023-01-29T01:55:54;3.00;99.90
16174;DHT22;14031;50.158;8.626;2023-01-29T01:58:25;2.90;99.90
16174;DHT22;14031;50.158;8.626;2023-01-29T02:00:54;2.90;99.90
16174;DHT22;14031;50.158;8.626;2023-01-29T02:03:23;2.90;99.90
16174;DHT22;14031;50.158;8.626;2023-01-29T02:06:11;3.00;99.90
16174;DHT22;14031;50.158;8.626;2023-01-29T02:08:59;2.90;99.90
16174;DHT22;14031;50.158;8.626;2023-01-29T02:11:45;2.90;99.90
16174;DHT22;14031;50.158;8.626;2023-01-29T02:14:11;3.00;99.90
16174;DHT22;14031;50.158;8.626;2023-01-29T02:16:40;2.80;99.90
16174;DHT22;14031;50.158;8.626;2023-01-29T02:19:12;2.80;99.90
16174;DHT22;14031;50.158;8.626;2023-01-29T02:21:59;2.80;99.90
16174;DHT22;14031;50.158;8.626;2023-01-29T02:24:44;2.80;99.90
16174;DHT22;14031;50.158;8.626;2023-01-29T02:27:19;2.80;99.90
16174;DHT22;14031;50.158;8.626;2023-01-29T02:29:54;2.80;99.90
16174;DHT22;14031;50.158;8.626;2023-01-29T02:32:26;2.70;99.90
16174;DHT22;14031;50.158;8.626;2023-01-29T02:35:08;2.70;99.90
16174;DHT22;14031;50.158;8.626;2023-01-29T02:38:00;2.70;99.90
16174;DHT22;14031;50.158;8.626;2023-01-29T02:40:32;2.70;99.90
16174;DHT22;14031;50.158;8.626;2023-01-29T02:43:09;2.70;99.90
16174;DHT22;14031;50.158;8.626;2023-01-29T02:45:47;2.70;99.90
16174;DHT22;14031;50.158;8.626;2023-01-29T02:48:18;2.70;99.90
16174;DHT22;14031;50.158;8.626;2023-01-29T02:50:49;2.70;99.90
16174;DHT22;14031;50.158;8.626;2023-01-29T02:53:24;2.70;99.90
16174;DHT22;14031;50.158;8.626;2023-01-29T02:55:56;2.60;99.90
16174;DHT22;14031;50.158;8.626;2023-01-29T02:58:30;2.60;99.90
16174;DHT22;14031;50.158;8.626;2023-01-29T03:01:02;2.60;99.90
16174;DHT22;14031;50.158;8.626;2023-01-29T03:03:35;2.60;99.90
16174;DHT22;14031;50.158;8.626;2023-01-29T03:06:06;2.60;99.90
16174;DHT22;14031;50.158;8.626;2023-01-29T03:08:39;2.50;99.90
16174;DHT22;14031;50.158;8.626;2023-01-29T03:11:11;2.50;99.90
16174;DHT22;14031;50.158;8.626;2023-01-29T03:13:42;2.50;99.90
16174;DHT22;14031;50.158;8.626;2023-01-29T03:16:18;2.70;99.90
16174;DHT22;14031;50.158;8.626;2023-01-29T03:18:50;2.50;99.90
16174;DHT22;14031;50.158;8.626;2023-01-29T03:21:24;2.60;99.90
16174;DHT22;14031;50.158;8.626;2023-01-29T03:24:10;2.60;99.90
16174;DHT22;14031;50.158;8.626;2023-01-29T03:26:57;2.60;99.90
16174;DHT22;14031;50.158;8.626;2023-01-29T03:29:46;2.60;99.90
16174;DHT22;14031;50.158;8.626;2023-01-29T03:32:32;2.60;99.90
16174;DHT22;14031;50.158;8.626;2023-01-29T03:35:03;2.70;99.90
16174;DHT22;14031;50.158;8.626;2023-01-29T03:37:34;2.70;99.90
16174;DHT22;14031;50.158;8.626;2023-01-29T03:40:03;2.60;99.90
16174;DHT22;14031;50.158;8.626;2023-01-29T03:42:40;2.70;99.90
16174;DHT22;14031;50.158;8.626;2023-01-29T03:45:16;2.70;99.90
16174;DHT22;14031;50.158;8.626;2023-01-29T03:47:50;2.60;99.90
16174;DHT22;14031;50.158;8.626;2023-01-29T03:50:31;2.60;99.90
16174;DHT22;14031;50.158;8.626;2023-01-29T03:53:04;2.60;99.90
16174;DHT22;14031;50.158;8.626;2023-01-29T03:55:37;2.70;99.90
16174;DHT22;14031;50.158;8.626;2023-01-29T03:58:18;2.60;99.90
16174;DHT22;14031;50.158;8.626;2023-01-29T04:00:51;2.50;99.90
16174;DHT22;14031;50.158;8.626;2023-01-29T04:03:23;2.40;99.90
16174;DHT22;14031;50.158;8.626;2023-01-29T04:05:53;2.40;99.90
16174;DHT22;14031;50.158;8.626;2023-01-29T04:08:25;2.30;99.90
16174;DHT22;14031;50.158;8.626;2023-01-29T04:10:55;2.30;99.90
16174;DHT22;14031;50.158;8.626;2023-01-29T04:13:25;2.30;99.90
16174;DHT22;14031;50.158;8.626;2023-01-29T04:15:57;2.20;99.90
16174;DHT22;14031;50.158;8.626;2023-01-29T04:18:26;2.30;99.90
16174;DHT22;14031;50.158;8.626;2023-01-29T04:20:53;2.30;99.90
16174;DHT22;14031;50.158;8.626;2023-01-29T04:23:22;2.30;99.90
16174;DHT22;14031;50.158;8.626;2023-01-29T04:25:55;2.30;99.90
16174;DHT22;14031;50.158;8.626;2023-01-29T04:28:27;2.30;99.90
16174;DHT22;14031;50.158;8.626;2023-01-29T04:31:04;2.40;99.90
16174;DHT22;14031;50.158;8.626;2023-01-29T04:33:41;2.20;99.90
16174;DHT22;14031;50.158;8.626;2023-01-29T04:36:18;2.20;99.90
16174;DHT22;14031;50.158;8.626;2023-01-29T04:38:56;2.20;99.90
16174;DHT22;14031;50.158;8.626;2023-01-29T04:41:33;2.10;99.90
16174;DHT22;14031;50.158;8.626;2023-01-29T04:44:07;2.10;99.90
16174;DHT22;14031;50.158;8.626;2023-01-29T04:46:41;2.10;99.90
16174;DHT22;14031;50.158;8.626;2023-01-29T04:49:20;2.10;99.90
16174;DHT22;14031;50.158;8.626;2023-01-29T04:51:56;2.00;99.90
16174;DHT22;14031;50.158;8.626;2023-01-29T04:54:31;2.00;99.90
16174;DHT22;14031;50.158;8.626;2023-01-29T04:57:08;2.00;99.90
16174;DHT22;14031;50.158;8.626;2023-01-29T04:59:40;2.00;99.90
16174;DHT22;14031;50.158;8.626;2023-01-29T05:02:09;2.00;99.90
16174;DHT22;14031;50.158;8.626;2023-01-29T05:04:40;1.90;99.90
16174;DHT22;14031;50.158;8.626;2023-01-29T05:07:10;1.90;99.90
16174;DHT22;14031;50.158;8.626;2023-01-29T05:09:38;1.90;99.90
16174;DHT22;14031;50.158;8.626;2023-01-29T05:12:07;1.80;99.90
16174;DHT22;14031;50.158;8.626;2023-01-29T05:14:37;1.80;99.90
16174;DHT22;14031;50.158;8.626;2023-01-29T05:17:08;1.80;99.90
16174;DHT22;14031;50.158;8.626;2023-01-29T05:19:36;1.80;99.90
16174;DHT22;14031;50.158;8.626;2023-01-29T05:22:05;1.80;99.90
16174;DHT22;14031;50.158;8.626;2023-01-29T05:24:35;1.80;99.90
16174;DHT22;14031;50.158;8.626;2023-01-29T05:27:02;1.70;99.90
16174;DHT22;14031;50.158;8.626;2023-01-29T05:29:46;1.80;99.90
16174;DHT22;14031;50.158;8.626;2023-01-29T05:32:14;1.70;99.90
16174;DHT22;14031;50.158;8.626;2023-01-29T05:34:41;1.70;99.90
16174;DHT22;14031;50.158;8.626;2023-01-29T05:37:10;1.70;99.90
16174;DHT22;14031;50.158;8.626;2023-01-29T05:39:37;1.70;99.90
16174;DHT22;14031;50.158;8.626;2023-01-29T05:42:04;1.70;99.90
16174;DHT22;14031;50.158;8.626;2023-01-29T05:44:30;1.70;99.90
16174;DHT22;14031;50.158;8.626;2023-01-29T05:46:57;1.60;99.90
16174;DHT22;14031;50.158;8.626;2023-01-29T05:49:27;1.60;99.90
16174;DHT22;14031;50.158;8.626;2023-01-29T05:51:53;1.60;99.90
16174;DHT22;14031;50.158;8.626;2023-01-29T05:54:21;1.60;99.90
16174;DHT22;14031;50.158;8.626;2023-01-29T05:56:48;1.60;99.90
16174;DHT22;14031;50.158;8.626;2023-01-29T05:59:15;1.60;99.90
16174;DHT22;14031;50.158;8.626;2023-01-29T06:01:42;1.60;99.90
16174;DHT22;14031;50.158;8.626;2023-01-29T06:04:09;1.70;99.90
16174;DHT22;14031;50.158;8.626;2023-01-29T06:06:36;1.70;99.90
16174;DHT22;14031;50.158;8.626;2023-01-29T06:09:02;1.60;99.90
16174;DHT22;14031;50.158;8.626;2023-01-29T06:11:30;1.60;99.90
16174;DHT22;14031;50.158;8.626;2023-01-29T06:13:57;1.60;99.90
16174;DHT22;14031;50.158;8.626;2023-01-29T06:16:24;1.70;99.90
16174;DHT22;14031;50.158;8.626;2023-01-29T06:18:51;1.60;99.90
16174;DHT22;14031;50.158;8.626;2023-01-29T06:21:17;1.60;99.90
16174;DHT22;14031;50.158;8.626;2023-01-29T06:23:44;1.60;99.90
16174;DHT22;14031;50.158;8.626;2023-01-29T06:26:13;1.60;99.90
16174;DHT22;14031;50.158;8.626;2023-01-29T06:28:42;1.60;99.90
16174;DHT22;14031;50.158;8.626;2023-01-29T06:31:10;1.60;99.90
16174;DHT22;14031;50.158;8.626;2023-01-29T06:33:37;1.60;99.90
16174;DHT22;14031;50.158;8.626;2023-01-29T06:36:05;1.70;99.90
16174;DHT22;14031;50.158;8.626;2023-01-29T06:38:32;1.70;99.90
16174;DHT22;14031;50.158;8.626;2023-01-29T06:40:59;1.70;99.90
16174;DHT22;14031;50.158;8.626;2023-01-29T06:43:25;1.70;99.90
16174;DHT22;14031;50.158;8.626;2023-01-29T06:45:55;1.70;99.90
16174;DHT22;14031;50.158;8.626;2023-01-29T06:48:26;1.70;99.90
16174;DHT22;14031;50.158;8.626;2023-01-29T06:50:53;1.70;99.90
16174;DHT22;14031;50.158;8.626;2023-01-29T06:53:20;1.80;99.90
16174;DHT22;14031;50.158;8.626;2023-01-29T06:55:50;1.80;99.90
16174;DHT22;14031;50.158;8.626;2023-01-29T06:58:20;1.80;99.90
16174;DHT22;14031;50.158;8.626;2023-01-29T07:00:52;1.70;99.90
16174;DHT22;14031;50.158;8.626;2023-01-29T07:03:26;1.90;99.90
16174;DHT22;14031;50.158;8.626;2023-01-29T07:05:53;1.80;99.90
16174;DHT22;14031;50.158;8.626;2023-01-29T07:08:19;1.80;99.90
16174;DHT22;14031;50.158;8.626;2023-01-29T07:10:48;2.00;99.90
16174;DHT22;14031;50.158;8.626;2023-01-29T07:13:17;1.80;99.90
16174;DHT22;14031;50.158;8.626;2023-01-29T07:15:44;1.90;99.90
16174;DHT22;14031;50.158;8.626;2023-01-29T07:18:11;1.80;99.90
16174;DHT22;14031;50.158;8.626;2023-01-29T07:20:40;1.70;99.90
16174;DHT22;14031;50.158;8.626;2023-01-29T07:23:10;1.70;99.90
16174;DHT22;14031;50.158;8.626;2023-01-29T07:25:37;1.50;99.90
16174;DHT22;14031;50.158;8.626;2023-01-29T07:28:04;1.40;99.90
16174;DHT22;14031;50.158;8.626;2023-01-29T07:30:32;1.40;99.90
16174;DHT22;14031;50.158;8.626;2023-01-29T07:33:00;1.50;99.90
16174;DHT22;14031;50.158;8.626;2023-01-29T07:35:27;1.50;99.90
16174;DHT22;14031;50.158;8.626;2023-01-29T07:37:56;1.60;99.90
16174;DHT22;14031;50.158;8.626;2023-01-29T07:40:22;1.60;99.90
16174;DHT22;14031;50.158;8.626;2023-01-29T07:42:49;1.70;99.90
16174;DHT22;14031;50.158;8.626;2023-01-29T07:45:16;1.70;99.90
16174;DHT22;14031;50.158;8.626;2023-01-29T07:47:43;1.60;99.90
16174;DHT22;14031;50.158;8.626;2023-01-29T07:50:10;1.60;99.90
16174;DHT22;14031;50.158;8.626;2023-01-29T07:52:37;1.60;99.90
16174;DHT22;14031;50.158;8.626;2023-01-29T07:55:06;1.60;99.90
16174;DHT22;14031;50.158;8.626;2023-01-29T07:57:32;1.70;99.90
16174;DHT22;14031;50.158;8.626;2023-01-29T07:59:59;1.70;99.90
16174;DHT22;14031;50.158;8.626;2023-01-29T08:02:26;1.80;99.90
16174;DHT22;14031;50.158;8.626;2023-01-29T08:04:53;1.80;99.90
16174;DHT22;14031;50.158;8.626;2023-01-29T08:07:19;1.70;99.90
16174;DHT22;14031;50.158;8.626;2023-01-29T08:09:46;1.70;99.90
16174;DHT22;14031;50.158;8.626;2023-01-29T08:12:14;1.80;99.90
16174;DHT22;14031;50.158;8.626;2023-01-29T08:14:41;1.80;99.90
16174;DHT22;14031;50.158;8.626;2023-01-29T08:17:10;1.90;99.90
16174;DHT22;14031;50.158;8.626;2023-01-29T08:19:36;1.90;99.90
16174;DHT22;14031;50.158;8.626;2023-01-29T08:22:04;2.00;99.90
16174;DHT22;14031;50.158;8.626;2023-01-29T08:24:31;1.90;99.90
16174;DHT22;14031;50.158;8.626;2023-01-29T08:26:58;2.00;99.90
16174;DHT22;14031;50.158;8.626;2023-01-29T08:29:26;2.00;99.90
16174;DHT22;14031;50.158;8.626;2023-01-29T08:31:53;2.00;99.90
16174;DHT22;14031;50.158;8.626;2023-01-29T08:34:19;2.00;99.90
16174;DHT22;14031;50.158;8.626;2023-01-29T08:36:46;2.20;99.90
16174;DHT22;14031;50.158;8.626;2023-01-29T08:39:13;2.10;99.90
16174;DHT22;14031;50.158;8.626;2023-01-29T08:41:41;2.30;99.90
16174;DHT22;14031;50.158;8.626;2023-01-29T08:44:08;2.30;99.90
16174;DHT22;14031;50.158;8.626;2023-01-29T08:46:37;2.20;99.90
16174;DHT22;14031;50.158;8.626;2023-01-29T08:49:05;2.40;99.90
16174;DHT22;14031;50.158;8.626;2023-01-29T08:51:32;2.30;99.90
16174;DHT22;14031;50.158;8.626;2023-01-29T08:53:58;2.30;99.90
16174;DHT22;14031;50.158;8.626;2023-01-29T08:56:25;2.20;99.90
16174;DHT22;14031;50.158;8.626;2023-01-29T08:58:52;2.10;99.90
16174;DHT22;14031;50.158;8.626;2023-01-29T09:01:19;2.30;99.90
16174;DHT22;14031;50.158;8.626;2023-01-29T09:03:47;2.20;99.90
16174;DHT22;14031;50.158;8.626;2023-01-29T09:06:14;2.20;99.90
16174;DHT22;14031;50.158;8.626;2023-01-29T09:08:41;2.20;99.90
16174;DHT22;14031;50.158;8.626;2023-01-29T09:11:08;2.20;99.90
16174;DHT22;14031;50.158;8.626;2023-01-29T09:13:35;2.00;99.90
16174;DHT22;14031;50.158;8.626;2023-01-29T09:16:03;2.00;99.90
16174;DHT22;14031;50.158;8.626;2023-01-29T09:18:30;1.90;99.90
16174;DHT22;14031;50.158;8.626;2023-01-29T09:20:58;1.90;99.90
16174;DHT22;14031;50.158;8.626;2023-01-29T09:23:33;2.20;99.90
16174;DHT22;14031;50.158;8.626;2023-01-29T09:25:59;2.30;99.90
16174;DHT22;14031;50.158;8.626;2023-01-29T09:28:26;2.40;99.90
16174;DHT22;14031;50.158;8.626;2023-01-29T09:30:53;2.60;99.90
16174;DHT22;14031;50.158;8.626;2023-01-29T09:33:26;2.60;99.90
16174;DHT22;14031;50.158;8.626;2023-01-29T09:35:53;2.60;99.90
16174;DHT22;14031;50.158;8.626;2023-01-29T09:38:21;2.50;99.90
16174;DHT22;14031;50.158;8.626;2023-01-29T09:40:54;2.80;99.90
16174;DHT22;14031;50.158;8.626;2023-01-29T09:43:30;2.60;99.90
16174;DHT22;14031;50.158;8.626;2023-01-29T09:46:03;2.50;99.90
16174;DHT22;14031;50.158;8.626;2023-01-29T09:48:33;2.60;99.90
16174;DHT22;14031;50.158;8.626;2023-01-29T09:51:04;2.50;99.90
16174;DHT22;14031;50.158;8.626;2023-01-29T09:53:39;2.50;99.90
16174;DHT22;14031;50.158;8.626;2023-01-29T09:56:12;2.40;99.90
16174;DHT22;14031;50.158;8.626;2023-01-29T09:58:42;2.30;99.90
16174;DHT22;14031;50.158;8.626;2023-01-29T10:01:13;2.40;99.90
16174;DHT22;14031;50.158;8.626;2023-01-29T10:06:50;2.50;99.90
16174;DHT22;14031;50.158;8.626;2023-01-29T10:09:40;2.70;99.90
16174;DHT22;14031;50.158;8.626;2023-01-29T10:12:18;2.70;99.90
16174;DHT22;14031;50.158;8.626;2023-01-29T10:14:54;2.70;99.90
16174;DHT22;14031;50.158;8.626;2023-01-29T10:20:33;2.90;99.90
16174;DHT22;14031;50.158;8.626;2023-01-29T10:23:16;2.80;99.90
16174;DHT22;14031;50.158;8.626;2023-01-29T10:25:46;2.80;99.90
16174;DHT22;14031;50.158;8.626;2023-01-29T10:28:16;2.70;99.90
16174;DHT22;14031;50.158;8.626;2023-01-29T10:30:47;2.90;99.90
16174;DHT22;14031;50.158;8.626;2023-01-29T10:33:17;2.80;99.90
16174;DHT22;14031;50.158;8.626;2023-01-29T10:35:48;2.80;99.90
16174;DHT22;14031;50.158;8.626;2023-01-29T10:38:37;2.90;99.90
16174;DHT22;14031;50.158;8.626;2023-01-29T10:41:17;3.00;99.90
16174;DHT22;14031;50.158;8.626;2023-01-29T10:43:57;3.10;99.90
16174;DHT22;14031;50.158;8.626;2023-01-29T10:46:32;3.10;99.90
16174;DHT22;14031;50.158;8.626;2023-01-29T10:49:12;3.20;99.90
16174;DHT22;14031;50.158;8.626;2023-01-29T10:51:55;3.30;99.90
16174;DHT22;14031;50.158;8.626;2023-01-29T10:54:42;3.40;99.90
16174;DHT22;14031;50.158;8.626;2023-01-29T10:57:22;3.30;99.90
16174;DHT22;14031;50.158;8.626;2023-01-29T11:00:06;3.20;99.90
16174;DHT22;14031;50.158;8.626;2023-01-29T11:02:42;3.20;99.90
16174;DHT22;14031;50.158;8.626;2023-01-29T11:05:18;3.30;99.90
16174;DHT22;14031;50.158;8.626;2023-01-29T11:07:45;3.40;99.90
16174;DHT22;14031;50.158;8.626;2023-01-29T11:10:17;3.50;99.90
16174;DHT22;14031;50.158;8.626;2023-01-29T11:12:49;3.70;99.90
16174;DHT22;14031;50.158;8.626;2023-01-29T11:15:19;3.80;99.90
16174;DHT22;14031;50.158;8.626;2023-01-29T11:18:03;3.90;99.90
16174;DHT22;14031;50.158;8.626;2023-01-29T11:20:32;3.90;99.90
16174;DHT22;14031;50.158;8.626;2023-01-29T11:22:59;3.80;99.90
16174;DHT22;14031;50.158;8.626;2023-01-29T11:25:26;3.60;99.90
16174;DHT22;14031;50.158;8.626;2023-01-29T11:27:56;3.40;99.90
16174;DHT22;14031;50.158;8.626;2023-01-29T11:30:26;3.20;99.90
16174;DHT22;14031;50.158;8.626;2023-01-29T11:33:05;3.20;99.90
16174;DHT22;14031;50.158;8.626;2023-01-29T11:35:34;3.20;99.90
16174;DHT22;14031;50.158;8.626;2023-01-29T11:38:18;3.30;99.90
16174;DHT22;14031;50.158;8.626;2023-01-29T11:40:45;3.20;99.90
16174;DHT22;14031;50.158;8.626;2023-01-29T11:43:21;3.00;99.90
16174;DHT22;14031;50.158;8.626;2023-01-29T11:45:50;3.00;99.90
16174;DHT22;14031;50.158;8.626;2023-01-29T11:48:19;2.90;99.90
16174;DHT22;14031;50.158;8.626;2023-01-29T11:50:51;3.00;99.90
16174;DHT22;14031;50.158;8.626;2023-01-29T11:53:25;3.10;99.90
16174;DHT22;14031;50.158;8.626;2023-01-29T11:55:52;3.30;99.90
16174;DHT22;14031;50.158;8.626;2023-01-29T11:58:26;3.50;99.90
16174;DHT22;14031;50.158;8.626;2023-01-29T12:00:54;3.50;99.90
16174;DHT22;14031;50.158;8.626;2023-01-29T12:03:29;3.40;99.90
16174;DHT22;14031;50.158;8.626;2023-01-29T12:05:59;3.40;99.90
16174;DHT22;14031;50.158;8.626;2023-01-29T12:08:32;3.40;99.90
16174;DHT22;14031;50.158;8.626;2023-01-29T12:11:07;3.40;99.90
16174;DHT22;14031;50.158;8.626;2023-01-29T12:13:36;3.60;99.90
16174;DHT22;14031;50.158;8.626;2023-01-29T12:16:11;3.70;99.90
16174;DHT22;14031;50.158;8.626;2023-01-29T12:18:40;3.80;99.90
16174;DHT22;14031;50.158;8.626;2023-01-29T12:21:13;3.80;99.90
16174;DHT22;14031;50.158;8.626;2023-01-29T12:23:49;3.90;99.90
16174;DHT22;14031;50.158;8.626;2023-01-29T12:26:24;3.90;99.90
16174;DHT22;14031;50.158;8.626;2023-01-29T12:31:51;4.00;99.90
16174;DHT22;14031;50.158;8.626;2023-01-29T12:34:26;4.10;99.90
16174;DHT22;14031;50.158;8.626;2023-01-29T12:37:03;4.00;99.90
16174;DHT22;14031;50.158;8.626;2023-01-29T12:39:35;4.10;99.90
16174;DHT22;14031;50.158;8.626;2023-01-29T12:42:04;4.20;99.90
16174;DHT22;14031;50.158;8.626;2023-01-29T12:44:38;4.20;99.90
16174;DHT22;14031;50.158;8.626;2023-01-29T12:47:13;4.40;99.90
16174;DHT22;14031;50.158;8.626;2023-01-29T12:49:41;4.20;99.90
16174;DHT22;14031;50.158;8.626;2023-01-29T12:52:12;4.30;99.90
16174;DHT22;14031;50.158;8.626;2023-01-29T12:54:46;4.30;99.90
16174;DHT22;14031;50.158;8.626;2023-01-29T12:57:20;4.30;99.90
16174;DHT22;14031;50.158;8.626;2023-01-29T12:59:52;4.40;99.90
16174;DHT22;14031;50.158;8.626;2023-01-29T13:02:31;4.40;99.90
16174;DHT22;14031;50.158;8.626;2023-01-29T13:05:03;4.40;99.90
16174;DHT22;14031;50.158;8.626;2023-01-29T13:07:33;4.40;99.90
16174;DHT22;14031;50.158;8.626;2023-01-29T13:10:08;4.40;99.90
16174;DHT22;14031;50.158;8.626;2023-01-29T13:12:38;4.20;99.90
16174;DHT22;14031;50.158;8.626;2023-01-29T13:15:14;4.20;99.90
16174;DHT22;14031;50.158;8.626;2023-01-29T13:17:46;4.00;99.90
16174;DHT22;14031;50.158;8.626;2023-01-29T13:20:18;3.90;99.90
16174;DHT22;14031;50.158;8.626;2023-01-29T13:22:47;3.80;99.90
16174;DHT22;14031;50.158;8.626;2023-01-29T13:25:17;3.60;99.90
16174;DHT22;14031;50.158;8.626;2023-01-29T13:27:45;3.70;99.90
16174;DHT22;14031;50.158;8.626;2023-01-29T13:30:28;3.70;99.90
16174;DHT22;14031;50.158;8.626;2023-01-29T13:32:57;3.70;99.90
16174;DHT22;14031;50.158;8.626;2023-01-29T13:35:34;3.70;99.90
16174;DHT22;14031;50.158;8.626;2023-01-29T13:38:03;3.60;99.90
16174;DHT22;14031;50.158;8.626;2023-01-29T13:40:31;3.50;99.90
16174;DHT22;14031;50.158;8.626;2023-01-29T13:43:00;3.60;99.90
16174;DHT22;14031;50.158;8.626;2023-01-29T13:45:33;3.70;99.90
16174;DHT22;14031;50.158;8.626;2023-01-29T13:48:09;3.70;99.90
16174;DHT22;14031;50.158;8.626;2023-01-29T13:50:39;3.80;99.90
16174;DHT22;14031;50.158;8.626;2023-01-29T13:53:16;3.90;99.90
16174;DHT22;14031;50.158;8.626;2023-01-29T13:55:44;3.80;99.90
16174;DHT22;14031;50.158;8.626;2023-01-29T13:58:14;3.80;99.90
16174;DHT22;14031;50.158;8.626;2023-01-29T14:00:52;4.00;99.90
16174;DHT22;14031;50.158;8.626;2023-01-29T14:03:52;4.00;99.90
16174;DHT22;14031;50.158;8.626;2023-01-29T14:06:45;4.10;99.90
16174;DHT22;14031;50.158;8.626;2023-01-29T14:12:38;4.30;99.90
16174;DHT22;14031;50.158;8.626;2023-01-29T14:15:39;4.40;99.90
16174;DHT22;14031;50.158;8.626;2023-01-29T14:18:19;4.50;99.90
16174;DHT22;14031;50.158;8.626;2023-01-29T14:20:52;4.60;99.90
16174;DHT22;14031;50.158;8.626;2023-01-29T14:23:26;4.70;99.90
16174;DHT22;14031;50.158;8.626;2023-01-29T14:25:57;4.70;99.90
16174;DHT22;14031;50.158;8.626;2023-01-29T14:28:39;4.60;99.90
16174;DHT22;14031;50.158;8.626;2023-01-29T14:31:06;4.70;99.90
16174;DHT22;14031;50.158;8.626;2023-01-29T14:33:36;4.80;99.90
16174;DHT22;14031;50.158;8.626;2023-01-29T14:36:05;5.00;99.90
16174;DHT22;14031;50.158;8.626;2023-01-29T14:38:35;4.90;99.90
16174;DHT22;14031;50.158;8.626;2023-01-29T14:41:06;5.10;99.90
16174;DHT22;14031;50.158;8.626;2023-01-29T14:43:33;5.00;99.90
16174;DHT22;14031;50.158;8.626;2023-01-29T14:49:07;5.00;99.90
16174;DHT22;14031;50.158;8.626;2023-01-29T14:51:37;4.90;99.90
16174;DHT22;14031;50.158;8.626;2023-01-29T14:54:15;4.80;99.90
16174;DHT22;14031;50.158;8.626;2023-01-29T14:56:47;4.60;99.90
16174;DHT22;14031;50.158;8.626;2023-01-29T14:59:19;4.60;99.90
16174;DHT22;14031;50.158;8.626;2023-01-29T15:01:51;4.30;99.90
16174;DHT22;14031;50.158;8.626;2023-01-29T15:04:24;4.30;99.90
16174;DHT22;14031;50.158;8.626;2023-01-29T15:06:56;4.30;99.90
16174;DHT22;14031;50.158;8.626;2023-01-29T15:09:33;4.20;99.90
16174;DHT22;14031;50.158;8.626;2023-01-29T15:12:12;4.20;99.90
16174;DHT22;14031;50.158;8.626;2023-01-29T15:14:46;4.30;99.90
16174;DHT22;14031;50.158;8.626;2023-01-29T15:17:20;4.20;99.90
16174;DHT22;14031;50.158;8.626;2023-01-29T15:19:50;4.20;99.90
16174;DHT22;14031;50.158;8.626;2023-01-29T15:22:18;4.30;99.90
16174;DHT22;14031;50.158;8.626;2023-01-29T15:24:47;4.20;99.90
16174;DHT22;14031;50.158;8.626;2023-01-29T15:27:27;4.00;99.90
16174;DHT22;14031;50.158;8.626;2023-01-29T15:29:57;4.00;99.90
16174;DHT22;14031;50.158;8.626;2023-01-29T15:32:27;4.00;99.90
16174;DHT22;14031;50.158;8.626;2023-01-29T15:34:58;4.10;99.90
16174;DHT22;14031;50.158;8.626;2023-01-29T15:37:28;4.00;99.90
16174;DHT22;14031;50.158;8.626;2023-01-29T15:39:55;4.00;99.90
16174;DHT22;14031;50.158;8.626;2023-01-29T15:42:22;4.00;99.90
16174;DHT22;14031;50.158;8.626;2023-01-29T15:44:51;3.90;99.90
16174;DHT22;14031;50.158;8.626;2023-01-29T15:47:20;3.90;99.90
16174;DHT22;14031;50.158;8.626;2023-01-29T15:49:47;3.90;99.90
16174;DHT22;14031;50.158;8.626;2023-01-29T15:52:18;3.80;99.90
16174;DHT22;14031;50.158;8.626;2023-01-29T15:54:45;3.60;99.90
16174;DHT22;14031;50.158;8.626;2023-01-29T15:57:19;3.60;99.90
16174;DHT22;14031;50.158;8.626;2023-01-29T15:59:47;3.50;99.90
16174;DHT22;14031;50.158;8.626;2023-01-29T16:02:35;3.50;99.90
16174;DHT22;14031;50.158;8.626;2023-01-29T16:05:04;3.40;99.90
16174;DHT22;14031;50.158;8.626;2023-01-29T16:07:34;3.40;99.90
16174;DHT22;14031;50.158;8.626;2023-01-29T16:10:06;3.30;99.90
16174;DHT22;14031;50.158;8.626;2023-01-29T16:12:33;3.20;99.90
16174;DHT22;14031;50.158;8.626;2023-01-29T16:15:02;3.20;99.90
16174;DHT22;14031;50.158;8.626;2023-01-29T16:17:31;3.20;99.90
16174;DHT22;14031;50.158;8.626;2023-01-29T16:20:02;3.20;99.90
16174;DHT22;14031;50.158;8.626;2023-01-29T16:22:31;3.30;99.90
16174;DHT22;14031;50.158;8.626;2023-01-29T16:25:02;3.20;99.90
16174;DHT22;14031;50.158;8.626;2023-01-29T16:27:30;3.10;99.90